Time;durP1;ratioP1;P1;durP2;ratioP2;P2;SDS_P1;SDS_P2;PMS_P1;PMS_P2;Temp;Humidity;BMP_temperature;BMP_pressure;BME280_temperature;BME280_humidity;BME280_pressure;Samples;Min_cycle;Max_cycle;Signal;HPM_P1;HPM_P2
2021/08/30 00:00:06;;;;;;;19.10;15.25;;;16.50;99.90;;;;;;6121252;23;20057;-69
2021/08/30 00:02:32;;;;;;;23.55;16.15;;;16.50;99.90;;;;;;6097582;23;20018;-69
2021/08/30 00:04:58;;;;;;;23.85;16.33;;;16.60;99.90;;;;;;6095727;23;20347;-69
2021/08/30 00:07:24;;;;;;;21.00;15.50;;;16.60;99.90;;;;;;6119573;23;20080;-69
2021/08/30 00:09:51;;;;;;;21.60;16.45;;;16.50;99.90;;;;;;6073786;23;20021;-69
2021/08/30 00:12:17;;;;;;;19.95;16.92;;;16.60;99.90;;;;;;6120654;23;20026;-68
2021/08/30 00:14:43;;;;;;;20.90;15.68;;;16.60;99.90;;;;;;6096895;23;20031;-68
2021/08/30 00:17:09;;;;;;;21.98;16.67;;;16.60;99.90;;;;;;6120454;23;20455;-68
2021/08/30 00:19:35;;;;;;;28.05;17.85;;;16.60;99.90;;;;;;6074676;23;20025;-70
2021/08/30 00:22:02;;;;;;;23.85;17.25;;;16.50;99.90;;;;;;6095850;23;20537;-70
2021/08/30 00:24:28;;;;;;;25.33;16.75;;;16.60;99.90;;;;;;6122053;23;20052;-69
2021/08/30 00:26:55;;;;;;;22.75;16.73;;;16.50;99.90;;;;;;6097646;23;20339;-69
2021/08/30 00:29:27;;;;;;;23.77;17.38;;;16.60;99.90;;;;;;6074372;23;20056;-69
2021/08/30 00:31:57;;;;;;;28.20;18.08;;;16.60;99.90;;;;;;6122401;23;20387;-69
2021/08/30 00:34:24;;;;;;;22.95;16.20;;;16.50;99.90;;;;;;6122831;23;20338;-69
2021/08/30 00:36:50;;;;;;;22.88;17.25;;;16.50;99.90;;;;;;6095472;23;20025;-69
2021/08/30 00:39:21;;;;;;;26.23;18.02;;;16.60;99.90;;;;;;6117742;23;20028;-69
2021/08/30 00:41:52;;;;;;;27.00;17.98;;;16.60;99.90;;;;;;6097350;23;20052;-68
2021/08/30 00:44:19;;;;;;;22.70;17.33;;;16.50;99.90;;;;;;6121667;23;20702;-69
2021/08/30 00:46:44;;;;;;;21.75;16.52;;;16.50;99.90;;;;;;6095025;23;20080;-69
2021/08/30 00:49:10;;;;;;;25.88;19.40;;;16.50;99.90;;;;;;6098379;23;20029;-69
2021/08/30 00:51:36;;;;;;;23.23;16.95;;;16.60;99.90;;;;;;6144437;23;20037;-69
2021/08/30 00:54:03;;;;;;;31.98;19.63;;;16.70;99.90;;;;;;6122097;23;20026;-68
2021/08/30 00:56:32;;;;;;;28.45;19.00;;;16.70;99.90;;;;;;6094807;23;20026;-71
2021/08/30 00:58:57;;;;;;;24.30;18.10;;;16.70;99.90;;;;;;6115966;23;20748;-69
2021/08/30 01:01:23;;;;;;;27.90;18.95;;;16.70;99.90;;;;;;6120884;23;20056;-69
2021/08/30 01:03:52;;;;;;;26.02;18.80;;;16.70;99.90;;;;;;6098395;23;20049;-69
2021/08/30 01:07:09;;;;;;;27.92;18.50;;;16.70;99.90;;;;;;6120056;23;20060;-69
2021/08/30 01:09:59;;;;;;;23.70;18.33;;;16.70;99.90;;;;;;6081765;23;20021;-69
2021/08/30 01:12:51;;;;;;;29.35;17.77;;;16.70;99.90;;;;;;6119966;23;20525;-69
2021/08/30 01:15:21;;;;;;;29.75;19.02;;;16.70;99.90;;;;;;6094941;23;20025;-69
2021/08/30 01:17:48;;;;;;;32.05;19.58;;;16.70;99.90;;;;;;6097169;23;20409;-69
2021/08/30 01:20:28;;;;;;;26.10;18.95;;;16.70;99.90;;;;;;6095500;23;20970;-70
2021/08/30 01:22:57;;;;;;;26.42;18.80;;;16.80;99.90;;;;;;6120564;23;20092;-68
2021/08/30 01:25:24;;;;;;;29.65;19.30;;;16.80;99.90;;;;;;6120746;23;20028;-69
2021/08/30 01:27:52;;;;;;;30.00;18.45;;;16.80;99.90;;;;;;6095488;23;20077;-69
2021/08/30 01:30:21;;;;;;;24.20;17.92;;;16.80;99.90;;;;;;6120797;23;20021;-69
2021/08/30 01:32:56;;;;;;;30.30;19.73;;;16.80;99.90;;;;;;6118553;23;20022;-69
2021/08/30 01:35:25;;;;;;;28.48;18.45;;;16.80;99.90;;;;;;6121715;23;20049;-69
2021/08/30 01:37:57;;;;;;;28.15;20.35;;;16.80;99.90;;;;;;6096691;23;20037;-69
2021/08/30 01:40:27;;;;;;;31.35;20.88;;;16.80;99.90;;;;;;6071150;23;20024;-69
2021/08/30 01:42:54;;;;;;;31.27;19.13;;;16.80;99.90;;;;;;6095229;23;20489;-69
2021/08/30 01:45:26;;;;;;;30.92;20.58;;;16.80;99.90;;;;;;6121337;23;20025;-68
2021/08/30 01:47:54;;;;;;;33.10;20.52;;;16.80;99.90;;;;;;6094428;23;20029;-69
2021/08/30 01:50:22;;;;;;;30.20;20.42;;;16.80;99.90;;;;;;6096361;23;20454;-69
2021/08/30 01:52:50;;;;;;;32.00;21.55;;;16.90;99.90;;;;;;6074482;23;20017;-69
2021/08/30 02:00:48;;;;;;;34.05;21.13;;;16.80;99.90;;;;;;6122477;23;20103;-69
2021/08/30 02:03:21;;;;;;;34.17;21.25;;;16.80;99.90;;;;;;6097403;23;20347;-69
2021/08/30 02:05:48;;;;;;;29.80;20.70;;;16.90;99.90;;;;;;6100541;23;20111;-69
2021/08/30 02:08:19;;;;;;;30.48;21.73;;;16.90;99.90;;;;;;6123647;23;20036;-69
2021/08/30 02:10:45;;;;;;;;;;;16.80;99.90;;;;;;6123369;23;20026;-69
2021/08/30 02:13:16;;;;;;;35.78;22.27;;;16.80;99.90;;;;;;6123575;23;19916;-68
2021/08/30 02:15:44;;;;;;;32.72;22.23;;;16.80;99.90;;;;;;6096704;23;20041;-68
2021/08/30 02:18:37;;;;;;;32.90;22.70;;;16.80;99.90;;;;;;6123283;23;20029;-68
2021/08/30 02:21:26;;;;;;;29.98;20.23;;;16.80;99.90;;;;;;6123115;23;20025;-69
2021/08/30 02:24:21;;;;;;;38.53;22.27;;;16.80;99.90;;;;;;6124400;23;20033;-69
2021/08/30 02:27:08;;;;;;;37.78;22.73;;;16.80;99.90;;;;;;6124373;23;20021;-68
2021/08/30 02:29:46;;;;;;;34.53;21.90;;;16.80;99.90;;;;;;6122972;23;20022;-69
2021/08/30 02:32:14;;;;;;;37.17;21.10;;;16.80;99.90;;;;;;6099809;23;20065;-69
2021/08/30 02:34:44;;;;;;;33.17;21.45;;;16.70;99.90;;;;;;6123494;23;20056;-69
2021/08/30 02:37:11;;;;;;;35.88;23.00;;;16.80;99.90;;;;;;6099717;23;20026;-69
2021/08/30 02:39:37;;;;;;;34.95;22.23;;;16.80;99.90;;;;;;6096773;23;20021;-69
2021/08/30 02:42:07;;;;;;;36.50;23.58;;;16.80;99.90;;;;;;6124958;23;20044;-69
2021/08/30 02:44:34;;;;;;;33.85;21.05;;;16.80;99.90;;;;;;6123177;23;20089;-69
2021/08/30 02:47:00;;;;;;;39.20;23.40;;;16.80;99.90;;;;;;6124245;23;20155;-69
2021/08/30 02:49:26;;;;;;;36.03;23.48;;;16.80;99.90;;;;;;6120189;23;20898;-69
2021/08/30 02:51:54;;;;;;;31.58;20.73;;;16.70;99.90;;;;;;6100520;23;20466;-69
2021/08/30 02:54:22;;;;;;;36.95;22.90;;;16.70;99.90;;;;;;6099953;23;20024;-69
2021/08/30 02:56:49;;;;;;;28.92;18.73;;;16.70;99.90;;;;;;6096870;23;20028;-69
2021/08/30 02:59:17;;;;;;;36.33;22.40;;;16.70;99.90;;;;;;6121207;23;20032;-69
2021/08/30 03:01:44;;;;;;;40.35;24.17;;;16.70;99.90;;;;;;6096416;23;20100;-69
2021/08/30 03:04:12;;;;;;;39.92;23.98;;;16.70;99.90;;;;;;6098592;23;20543;-69
2021/08/30 03:06:39;;;;;;;35.67;21.27;;;16.70;99.90;;;;;;6121655;23;20018;-69
2021/08/30 03:09:08;;;;;;;39.95;24.67;;;16.70;99.90;;;;;;6122272;23;20067;-70
2021/08/30 03:11:37;;;;;;;42.88;26.80;;;16.70;99.90;;;;;;6074397;23;20022;-69
2021/08/30 03:14:05;;;;;;;41.33;25.83;;;16.80;99.90;;;;;;6100084;23;20056;-70
2021/08/30 03:16:34;;;;;;;41.45;26.35;;;16.70;99.90;;;;;;6095713;23;20022;-70
2021/08/30 03:19:02;;;;;;;48.78;26.13;;;16.70;99.90;;;;;;6099105;23;20525;-71
2021/08/30 03:21:29;;;;;;;42.90;25.77;;;16.70;99.90;;;;;;6097272;23;20116;-70
2021/08/30 03:23:55;;;;;;;36.33;22.55;;;16.70;99.90;;;;;;6121053;23;20040;-71
2021/08/30 03:26:22;;;;;;;45.30;25.60;;;16.70;99.90;;;;;;6123880;23;20029;-70
2021/08/30 03:28:50;;;;;;;47.05;28.30;;;16.70;99.90;;;;;;6121160;23;20021;-70
2021/08/30 03:31:16;;;;;;;45.97;26.08;;;16.70;99.90;;;;;;6098804;23;20036;-71
2021/08/30 03:33:43;;;;;;;41.90;24.27;;;16.70;99.90;;;;;;6123867;23;20045;-70
2021/08/30 03:36:11;;;;;;;54.97;27.83;;;16.60;99.90;;;;;;6098961;23;20021;-70
2021/08/30 03:38:38;;;;;;;53.63;28.52;;;16.60;99.90;;;;;;6123281;23;20025;-70
2021/08/30 03:41:07;;;;;;;46.60;29.33;;;16.70;99.90;;;;;;6123119;23;20021;-70
2021/08/30 03:43:36;;;;;;;50.45;28.05;;;16.60;99.90;;;;;;6123130;23;20068;-70
2021/08/30 03:46:02;;;;;;;47.45;28.30;;;16.60;99.90;;;;;;6121206;23;20021;-71
2021/08/30 03:48:31;;;;;;;49.92;26.80;;;16.60;99.90;;;;;;6098759;23;20443;-70
2021/08/30 03:50:58;;;;;;;51.55;27.50;;;16.60;99.90;;;;;;6121283;23;20025;-71
2021/08/30 03:53:24;;;;;;;54.47;29.88;;;16.50;99.90;;;;;;6123265;23;20921;-70
2021/08/30 03:55:50;;;;;;;61.55;30.88;;;16.50;99.90;;;;;;6124611;23;20029;-71
2021/08/30 03:58:18;;;;;;;51.58;30.20;;;16.50;99.90;;;;;;6096943;23;20022;-71
2021/08/30 04:00:45;;;;;;;55.97;29.25;;;16.50;99.90;;;;;;6073821;23;20477;-71
2021/08/30 04:03:12;;;;;;;45.30;25.25;;;16.50;99.90;;;;;;6098354;23;20037;-71
2021/08/30 04:05:41;;;;;;;41.60;25.17;;;16.40;99.90;;;;;;6120463;23;20026;-70
2021/08/30 04:08:10;;;;;;;46.83;26.45;;;16.40;99.90;;;;;;6098114;23;20112;-71
2021/08/30 04:10:37;;;;;;;49.35;28.20;;;16.40;99.90;;;;;;6097878;23;20021;-70
2021/08/30 04:13:04;;;;;;;52.47;28.25;;;16.40;99.90;;;;;;6099305;23;20698;-71
2021/08/30 04:15:34;;;;;;;56.80;30.42;;;16.40;99.90;;;;;;6075098;23;20032;-71
2021/08/30 04:17:59;;;;;;;59.80;31.45;;;16.50;99.90;;;;;;6097752;23;20521;-70
2021/08/30 04:20:25;;;;;;;57.20;32.05;;;16.50;99.90;;;;;;6073539;23;20025;-70
2021/08/30 04:22:51;;;;;;;58.13;30.95;;;16.50;99.90;;;;;;6073445;23;20100;-70
2021/08/30 04:25:17;;;;;;;48.60;28.20;;;16.50;99.90;;;;;;6122739;23;20374;-70
2021/08/30 04:27:43;;;;;;;49.75;29.70;;;16.50;99.90;;;;;;6071925;23;20029;-68
2021/08/30 04:30:09;;;;;;;51.63;28.60;;;16.50;99.90;;;;;;6120697;23;20462;-68
2021/08/30 04:32:37;;;;;;;61.75;29.13;;;16.50;99.90;;;;;;6074686;23;20025;-69
2021/08/30 04:35:06;;;;;;;51.53;27.80;;;16.60;99.90;;;;;;6122957;23;20028;-69
2021/08/30 04:37:32;;;;;;;55.83;30.45;;;16.50;99.90;;;;;;6098319;23;20026;-69
2021/08/30 04:39:58;;;;;;;59.30;29.38;;;16.60;99.90;;;;;;6096598;23;20116;-70
2021/08/30 04:42:24;;;;;;;51.08;29.33;;;16.60;99.90;;;;;;6122175;23;20032;-69
2021/08/30 04:44:50;;;;;;;56.22;30.08;;;16.60;99.90;;;;;;6096303;23;20057;-70
2021/08/30 04:47:17;;;;;;;52.28;30.60;;;16.60;99.90;;;;;;6122258;23;20402;-69
2021/08/30 04:49:42;;;;;;;63.50;30.77;;;16.60;99.90;;;;;;6120107;23;20025;-69
2021/08/30 04:52:08;;;;;;;55.65;30.02;;;16.60;99.90;;;;;;6121813;23;20021;-69
2021/08/30 04:54:34;;;;;;;60.22;30.75;;;16.60;99.90;;;;;;6096316;23;20025;-70
2021/08/30 04:57:00;;;;;;;58.55;32.47;;;16.70;99.90;;;;;;6095045;23;20110;-69
2021/08/30 04:59:26;;;;;;;61.08;33.55;;;16.70;99.90;;;;;;6095746;23;20112;-69
2021/08/30 05:01:52;;;;;;;54.75;31.50;;;16.70;99.90;;;;;;6119749;23;20463;-69
2021/08/30 05:04:17;;;;;;;61.80;31.63;;;16.70;99.90;;;;;;6121268;23;20025;-70
2021/08/30 05:06:43;;;;;;;53.28;32.88;;;16.80;99.90;;;;;;6120619;23;20018;-70
2021/08/30 05:09:09;;;;;;;59.03;32.65;;;16.80;99.90;;;;;;6096344;23;20714;-70
2021/08/30 05:11:41;;;;;;;56.05;31.67;;;16.80;99.90;;;;;;6095253;23;20536;-70
2021/08/30 05:14:07;;;;;;;51.05;30.25;;;16.90;99.90;;;;;;6098041;23;20878;-69
2021/08/30 05:16:34;;;;;;;54.80;30.33;;;16.90;99.90;;;;;;6093229;23;20064;-69
2021/08/30 05:19:00;;;;;;;50.53;30.67;;;16.90;99.90;;;;;;6093697;23;20093;-69
2021/08/30 05:21:25;;;;;;;51.45;29.45;;;16.90;99.90;;;;;;6095872;23;20037;-69
2021/08/30 05:23:51;;;;;;;44.70;26.27;;;16.90;99.90;;;;;;6093537;23;20351;-69
2021/08/30 05:26:17;;;;;;;44.88;28.15;;;16.90;99.90;;;;;;6072974;23;20683;-69
2021/08/30 05:28:43;;;;;;;39.00;26.00;;;16.90;99.90;;;;;;6073847;23;20025;-69
2021/08/30 05:31:09;;;;;;;47.28;26.05;;;16.90;99.90;;;;;;6098043;23;20024;-70
2021/08/30 05:33:36;;;;;;;45.15;24.80;;;17.00;99.90;;;;;;6099955;23;20032;-70
2021/08/30 05:36:04;;;;;;;41.72;24.92;;;17.00;99.90;;;;;;6100125;23;20414;-70
2021/08/30 05:38:30;;;;;;;43.35;25.83;;;17.00;99.90;;;;;;6098779;23;20473;-70
2021/08/30 05:40:56;;;;;;;44.28;27.27;;;17.00;99.90;;;;;;6122475;23;20104;-70
2021/08/30 05:43:21;;;;;;;39.92;26.05;;;17.00;99.90;;;;;;6100029;23;20104;-69
2021/08/30 05:45:47;;;;;;;37.03;25.42;;;17.10;99.90;;;;;;6123648;23;20025;-69
2021/08/30 05:48:13;;;;;;;39.72;25.55;;;17.10;99.90;;;;;;6097648;23;20025;-69
2021/08/30 05:50:39;;;;;;;38.90;24.35;;;17.10;99.90;;;;;;6098741;23;20057;-70
2021/08/30 05:53:05;;;;;;;37.63;25.27;;;17.10;99.90;;;;;;6120551;23;20025;-69
2021/08/30 05:55:30;;;;;;;45.53;26.67;;;17.20;99.90;;;;;;6121310;23;20022;-69
2021/08/30 05:57:56;;;;;;;34.25;24.05;;;17.20;99.90;;;;;;6074364;23;20028;-69
2021/08/30 06:00:22;;;;;;;38.20;25.10;;;17.20;99.90;;;;;;6074149;23;20108;-69
2021/08/30 06:02:48;;;;;;;38.65;25.77;;;17.30;99.90;;;;;;6122619;23;20017;-69
2021/08/30 06:05:14;;;;;;;36.63;23.88;;;17.30;99.90;;;;;;6074850;23;20021;-70
2021/08/30 06:07:40;;;;;;;35.17;24.38;;;17.30;99.90;;;;;;6123080;23;20346;-69
2021/08/30 06:10:10;;;;;;;34.67;23.60;;;17.30;99.90;;;;;;6122686;23;20021;-70
2021/08/30 06:12:38;;;;;;;29.55;22.38;;;17.40;99.90;;;;;;6098626;23;20037;-70
2021/08/30 06:15:07;;;;;;;36.35;24.23;;;17.30;99.90;;;;;;6121553;23;20069;-69
2021/08/30 06:17:33;;;;;;;39.60;23.23;;;17.40;99.90;;;;;;6124057;23;20108;-69
2021/08/30 06:19:59;;;;;;;29.30;20.90;;;17.40;99.90;;;;;;6099861;23;20021;-70
2021/08/30 06:22:25;;;;;;;32.55;22.92;;;17.40;99.90;;;;;;6149493;23;20031;-69
2021/08/30 06:24:51;;;;;;;29.80;22.38;;;17.40;99.90;;;;;;6122710;23;20101;-69
2021/08/30 06:27:20;;;;;;;30.95;21.77;;;17.40;99.90;;;;;;6122964;23;20620;-69
2021/08/30 06:29:46;;;;;;;30.48;22.17;;;17.40;99.90;;;;;;6124996;23;20179;-69
2021/08/30 06:32:12;;;;;;;33.63;20.90;;;17.40;99.90;;;;;;6073337;23;20108;-69
2021/08/30 06:34:38;;;;;;;27.98;19.42;;;17.40;99.90;;;;;;6123700;23;20046;-69
2021/08/30 06:37:07;;;;;;;27.08;19.67;;;17.40;99.90;;;;;;6124031;23;20439;-70
2021/08/30 06:39:33;;;;;;;27.60;19.10;;;17.50;99.90;;;;;;6096712;23;20026;-70
2021/08/30 06:41:59;;;;;;;28.85;20.13;;;17.50;99.90;;;;;;6122772;23;20117;-69
2021/08/30 06:44:25;;;;;;;26.60;19.38;;;17.70;99.90;;;;;;6096556;23;20021;-69
2021/08/30 06:46:52;;;;;;;22.92;17.65;;;17.80;99.90;;;;;;6096662;23;20064;-68
2021/08/30 06:49:17;;;;;;;24.98;18.88;;;17.80;99.90;;;;;;6097784;23;20370;-69
2021/08/30 06:51:43;;;;;;;22.92;16.77;;;17.80;99.90;;;;;;6066610;23;20025;-69
2021/08/30 06:54:09;;;;;;;24.52;17.05;;;17.90;99.90;;;;;;6071768;23;20025;-70
2021/08/30 06:56:37;;;;;;;19.35;15.70;;;17.90;99.90;;;;;;6098328;23;20025;-69
2021/08/30 06:59:05;;;;;;;20.58;16.30;;;18.00;99.90;;;;;;6121197;23;20461;-70
2021/08/30 07:01:31;;;;;;;22.77;15.95;;;18.00;99.90;;;;;;6088555;23;20442;-69
2021/08/30 07:03:59;;;;;;;19.35;15.98;;;18.00;99.90;;;;;;6117172;23;20021;-70
2021/08/30 07:06:25;;;;;;;19.05;16.25;;;18.10;99.90;;;;;;6097809;23;20315;-69
2021/08/30 07:08:51;;;;;;;24.70;16.80;;;18.00;99.90;;;;;;6072117;23;20025;-69
2021/08/30 07:11:17;;;;;;;21.63;15.23;;;18.10;99.90;;;;;;6119947;23;20354;-69
2021/08/30 07:13:42;;;;;;;17.17;15.38;;;18.10;99.90;;;;;;6120198;23;20021;-70
2021/08/30 07:16:08;;;;;;;20.60;15.27;;;18.20;99.90;;;;;;6097074;23;20053;-70
2021/08/30 07:18:34;;;;;;;17.42;15.38;;;18.20;99.90;;;;;;6096317;23;20052;-70
2021/08/30 07:21:00;;;;;;;19.58;15.25;;;18.20;99.90;;;;;;6121494;23;20021;-70
2021/08/30 07:23:27;;;;;;;19.75;14.88;;;18.30;99.90;;;;;;6095787;23;20025;-70
2021/08/30 07:25:53;;;;;;;19.45;14.60;;;18.50;99.90;;;;;;6121671;23;20021;-69
2021/08/30 07:28:19;;;;;;;21.40;14.18;;;18.50;99.90;;;;;;6122458;23;20033;-70
2021/08/30 07:30:45;;;;;;;16.23;14.52;;;18.40;99.90;;;;;;6120406;23;20018;-69
2021/08/30 07:33:11;;;;;;;18.95;14.02;;;18.50;99.90;;;;;;6121201;23;20044;-69
2021/08/30 07:35:37;;;;;;;17.75;14.15;;;18.60;99.90;;;;;;6096737;23;20450;-70
2021/08/30 07:38:02;;;;;;;16.58;14.23;;;18.80;99.90;;;;;;6072159;23;20068;-70
2021/08/30 07:40:28;;;;;;;15.32;13.43;;;18.90;99.90;;;;;;6071935;23;20100;-70
2021/08/30 07:42:54;;;;;;;16.48;14.40;;;19.00;99.90;;;;;;6074601;23;20026;-69
2021/08/30 07:45:20;;;;;;;17.08;13.43;;;19.20;99.90;;;;;;6074340;23;20104;-70
2021/08/30 07:47:45;;;;;;;15.55;12.63;;;19.30;99.90;;;;;;6096269;23;20072;-69
2021/08/30 07:50:12;;;;;;;14.77;12.85;;;19.30;99.90;;;;;;6095801;23;20084;-69
2021/08/30 07:52:38;;;;;;;13.82;11.35;;;19.50;99.90;;;;;;6118871;23;20041;-69
2021/08/30 07:55:05;;;;;;;14.70;11.32;;;19.50;99.90;;;;;;6096955;23;20026;-70
2021/08/30 07:57:31;;;;;;;15.20;11.65;;;19.40;99.90;;;;;;6049749;23;20021;-69
2021/08/30 07:59:57;;;;;;;16.33;12.30;;;19.50;99.90;;;;;;6093404;23;20025;-69
2021/08/30 08:02:23;;;;;;;13.82;10.57;;;19.40;99.90;;;;;;6072221;23;20028;-70
2021/08/30 08:04:48;;;;;;;15.55;11.43;;;19.50;99.90;;;;;;6073034;23;20026;-70
2021/08/30 08:07:14;;;;;;;13.85;11.95;;;19.50;99.90;;;;;;6121532;23;20025;-71
2021/08/30 08:09:40;;;;;;;14.80;10.85;;;19.50;99.90;;;;;;6119466;23;20025;-69
2021/08/30 08:12:07;;;;;;;13.65;11.05;;;19.60;99.90;;;;;;6097109;23;20076;-70
2021/08/30 08:14:34;;;;;;;14.80;11.85;;;19.60;99.90;;;;;;6096561;23;20025;-70
2021/08/30 08:17:00;;;;;;;14.20;11.60;;;19.70;99.90;;;;;;6073513;23;20025;-70
2021/08/30 08:19:26;;;;;;;13.15;10.65;;;19.70;99.90;;;;;;6095290;23;20034;-70
2021/08/30 08:21:55;;;;;;;13.77;11.18;;;19.70;99.90;;;;;;6145306;23;20096;-68
2021/08/30 08:24:23;;;;;;;12.52;11.23;;;19.80;99.50;;;;;;6121074;23;20029;-70
2021/08/30 08:26:50;;;;;;;13.30;10.80;;;19.80;99.90;;;;;;6097948;23;20030;-68
2021/08/30 08:29:16;;;;;;;14.15;11.27;;;19.80;99.90;;;;;;6121314;23;20121;-68
2021/08/30 08:31:42;;;;;;;13.25;10.45;;;19.90;99.90;;;;;;6046944;23;20061;-69
2021/08/30 08:34:07;;;;;;;15.05;10.93;;;20.10;99.90;;;;;;6120480;23;20021;-69
2021/08/30 08:36:38;;;;;;;12.75;10.32;;;20.20;99.90;;;;;;6073766;23;20113;-69
2021/08/30 08:39:13;;;;;;;14.15;10.38;;;20.40;99.90;;;;;;6075187;23;20025;-69
2021/08/30 08:41:39;;;;;;;12.70;10.30;;;20.50;99.60;;;;;;6098415;23;20017;-69
2021/08/30 08:44:09;;;;;;;13.95;10.43;;;20.40;99.30;;;;;;6096445;23;20088;-68
2021/08/30 08:46:37;;;;;;;11.90;10.57;;;20.40;98.60;;;;;;6096564;23;20025;-69
2021/08/30 08:49:03;;;;;;;14.23;9.80;;;20.40;98.00;;;;;;6097529;23;20021;-69
2021/08/30 08:51:29;;;;;;;14.68;10.32;;;20.30;98.70;;;;;;6117710;23;20376;-69
2021/08/30 08:53:55;;;;;;;11.73;9.32;;;20.30;99.20;;;;;;6074821;23;20076;-69
2021/08/30 08:56:25;;;;;;;11.50;9.38;;;20.20;99.40;;;;;;6119143;23;20358;-69
2021/08/30 08:58:51;;;;;;;;;;;20.20;97.80;;;;;;6095145;23;20018;-69
2021/08/30 09:01:26;;;;;;;11.52;9.35;;;20.10;98.80;;;;;;6119931;23;19980;-68
2021/08/30 09:03:55;;;;;;;11.10;9.48;;;20.20;98.80;;;;;;6120131;23;20080;-69
2021/08/30 09:06:40;;;;;;;11.18;8.85;;;20.40;99.30;;;;;;6118905;23;20026;-69
2021/08/30 09:09:15;;;;;;;12.82;8.80;;;20.40;98.10;;;;;;6121170;23;20050;-69
2021/08/30 09:11:46;;;;;;;11.10;8.80;;;20.40;98.40;;;;;;6121015;23;20024;-69
2021/08/30 09:14:21;;;;;;;11.02;8.93;;;20.30;98.10;;;;;;6119370;23;20100;-69
2021/08/30 09:16:48;;;;;;;9.30;7.97;;;20.30;98.60;;;;;;6120945;23;20072;-70
2021/08/30 09:19:17;;;;;;;10.95;7.97;;;20.30;96.80;;;;;;6121384;23;20025;-69
2021/08/30 09:21:47;;;;;;;9.32;8.40;;;20.40;97.60;;;;;;6093093;23;20088;-69
2021/08/30 09:24:17;;;;;;;9.88;7.90;;;20.50;97.00;;;;;;6096306;23;20537;-69
2021/08/30 09:26:44;;;;;;;8.95;7.25;;;20.70;96.90;;;;;;6119350;23;20462;-70
2021/08/30 09:29:21;;;;;;;10.80;8.25;;;20.80;97.20;;;;;;6121281;23;20029;-69
2021/08/30 09:32:06;;;;;;;9.50;7.28;;;20.80;95.10;;;;;;6120706;23;20053;-69
2021/08/30 09:34:53;;;;;;;9.90;7.88;;;20.70;96.30;;;;;;6096575;23;20022;-69
2021/08/30 09:37:22;;;;;;;8.80;7.00;;;20.80;95.90;;;;;;6122172;23;20358;-70
2021/08/30 09:39:59;;;;;;;9.32;6.97;;;20.90;96.10;;;;;;6119088;23;20129;-70
2021/08/30 09:42:26;;;;;;;10.38;7.22;;;20.90;95.00;;;;;;6096645;23;20096;-70
2021/08/30 09:44:55;;;;;;;7.70;6.78;;;20.70;95.30;;;;;;6096330;23;20029;-70
2021/08/30 09:47:21;;;;;;;9.00;7.22;;;20.60;95.90;;;;;;6120873;23;20022;-69
2021/08/30 09:49:52;;;;;;;9.23;6.93;;;20.60;94.90;;;;;;6121440;23;20032;-69
2021/08/30 09:52:22;;;;;;;10.52;7.70;;;20.50;95.40;;;;;;6097972;23;20580;-70
2021/08/30 09:54:48;;;;;;;;;;;20.40;95.20;;;;;;6119293;23;20875;-69
2021/08/30 09:57:15;;;;;;;8.70;6.45;;;20.50;95.30;;;;;;6122089;23;20007;-69
2021/08/30 09:59:45;;;;;;;9.35;6.88;;;20.40;95.30;;;;;;6094676;23;20057;-70
2021/08/30 10:02:17;;;;;;;9.45;6.68;;;20.30;95.50;;;;;;6121856;23;20021;-70
2021/08/30 10:04:44;;;;;;;9.52;6.30;;;20.30;95.10;;;;;;6097115;23;20027;-69
2021/08/30 10:07:12;;;;;;;8.63;6.78;;;20.30;95.60;;;;;;6121500;23;20032;-69
2021/08/30 10:09:40;;;;;;;9.00;6.78;;;20.30;95.90;;;;;;6119282;23;20020;-69
2021/08/30 10:12:06;;;;;;;9.88;7.10;;;20.40;95.60;;;;;;6119863;23;20036;-69
2021/08/30 10:14:36;;;;;;;8.70;6.55;;;20.60;95.90;;;;;;6092777;23;20428;-69
2021/08/30 10:17:05;;;;;;;8.80;6.70;;;20.90;95.50;;;;;;6096719;23;20076;-70
2021/08/30 10:19:34;;;;;;;8.70;6.90;;;21.20;94.20;;;;;;6122350;23;20017;-70
2021/08/30 10:22:02;;;;;;;7.90;6.30;;;21.30;93.50;;;;;;6122469;23;20253;-70
2021/08/30 10:24:40;;;;;;;8.35;5.95;;;21.30;93.90;;;;;;6122795;23;20123;-70
2021/08/30 10:27:09;;;;;;;7.10;5.80;;;21.30;93.70;;;;;;6122621;23;20467;-70
2021/08/30 10:29:38;;;;;;;6.07;5.38;;;21.20;92.20;;;;;;6122510;23;20029;-69
2021/08/30 10:32:21;;;;;;;10.48;5.88;;;21.10;91.90;;;;;;6122707;23;20033;-69
2021/08/30 10:34:55;;;;;;;7.15;5.85;;;21.00;93.40;;;;;;6122631;23;20630;-69
2021/08/30 10:37:23;;;;;;;9.43;5.93;;;21.00;93.40;;;;;;6121944;23;20028;-70
2021/08/30 10:39:53;;;;;;;7.25;6.00;;;21.00;93.60;;;;;;6096320;23;20519;-69
2021/08/30 10:42:18;;;;;;;9.13;5.40;;;21.00;92.80;;;;;;6122750;23;20021;-70
2021/08/30 10:44:55;;;;;;;6.60;5.30;;;21.30;92.40;;;;;;6092650;23;20044;-69
2021/08/30 10:47:42;;;;;;;6.88;5.20;;;21.50;91.60;;;;;;6098143;23;20032;-70
2021/08/30 10:50:21;;;;;;;7.68;5.90;;;21.50;91.60;;;;;;6098204;23;20025;-69
2021/08/30 10:52:47;;;;;;;6.82;5.10;;;21.40;90.30;;;;;;6097500;23;20030;-68
2021/08/30 10:55:18;;;;;;;6.00;5.10;;;21.30;90.80;;;;;;6098241;23;20044;-68
2021/08/30 10:57:53;;;;;;;6.38;4.93;;;21.30;90.80;;;;;;6121660;23;20204;-68
2021/08/30 11:00:31;;;;;;;6.00;5.32;;;21.50;90.00;;;;;;6098850;23;20053;-69
2021/08/30 11:02:57;;;;;;;6.25;5.07;;;21.50;90.80;;;;;;6121229;23;20030;-68
2021/08/30 11:05:30;;;;;;;6.97;5.05;;;21.50;89.10;;;;;;6098394;23;20033;-69
2021/08/30 11:07:56;;;;;;;6.45;5.03;;;21.40;90.20;;;;;;6096538;23;20133;-69
2021/08/30 11:10:25;;;;;;;8.02;5.32;;;21.30;89.70;;;;;;6121714;23;20100;-69
2021/08/30 11:12:52;;;;;;;6.28;4.97;;;21.40;90.60;;;;;;6096480;23;20025;-67
2021/08/30 11:15:18;;;;;;;7.00;4.95;;;21.60;91.10;;;;;;6121621;23;20069;-68
2021/08/30 11:17:44;;;;;;;9.13;6.43;;;21.80;90.30;;;;;;6097109;23;20025;-68
2021/08/30 11:20:14;;;;;;;6.65;5.38;;;22.00;88.90;;;;;;6097309;23;20022;-68
2021/08/30 11:22:40;;;;;;;7.57;6.00;;;22.10;90.10;;;;;;6120717;23;20670;-67
2021/08/30 11:25:06;;;;;;;7.13;5.10;;;22.30;88.30;;;;;;6096779;23;20025;-68
2021/08/30 11:27:33;;;;;;;7.30;5.72;;;22.40;88.80;;;;;;6121720;23;20025;-69
2021/08/30 11:30:04;;;;;;;;;;;22.50;85.60;;;;;;6099177;23;20022;-68
2021/08/30 11:32:31;;;;;;;8.27;6.22;;;22.40;88.80;;;;;;6098541;23;19917;-68
2021/08/30 11:34:59;;;;;;;6.65;5.90;;;22.20;87.90;;;;;;6095462;23;20083;-68
2021/08/30 11:37:30;;;;;;;7.30;5.38;;;22.00;88.60;;;;;;6096736;23;20021;-68
2021/08/30 11:39:58;;;;;;;8.07;5.95;;;21.80;88.20;;;;;;6120632;23;20100;-68
2021/08/30 11:42:27;;;;;;;7.25;5.68;;;21.70;90.20;;;;;;6121474;23;20139;-68
2021/08/30 11:44:57;;;;;;;8.05;5.55;;;21.90;90.70;;;;;;6097450;23;20022;-69
2021/08/30 11:47:24;;;;;;;8.80;5.82;;;22.00;90.60;;;;;;6098465;23;20358;-69
2021/08/30 11:49:55;;;;;;;7.63;5.80;;;21.90;88.90;;;;;;6097007;23;20017;-68
2021/08/30 11:52:23;;;;;;;7.57;5.70;;;21.70;87.50;;;;;;6096710;23;20036;-68
2021/08/30 11:55:12;;;;;;;8.27;5.97;;;21.60;90.30;;;;;;6095151;23;20726;-68
2021/08/30 11:57:51;;;;;;;8.38;6.07;;;21.80;90.50;;;;;;6095762;23;20022;-69
2021/08/30 12:00:22;;;;;;;7.57;6.22;;;22.10;90.80;;;;;;6122980;23;20026;-68
2021/08/30 12:02:50;;;;;;;7.13;5.63;;;22.40;90.40;;;;;;6120984;23;20087;-70
2021/08/30 12:05:16;;;;;;;8.07;5.15;;;22.40;88.40;;;;;;6116813;23;20065;-69
2021/08/30 12:07:42;;;;;;;7.75;6.50;;;22.10;87.40;;;;;;6121218;23;20510;-68
2021/08/30 12:10:11;;;;;;;6.53;5.50;;;21.80;88.20;;;;;;6123657;23;20026;-69
2021/08/30 12:12:54;;;;;;;7.37;5.80;;;21.80;89.60;;;;;;6122027;23;20021;-68
2021/08/30 12:15:25;;;;;;;7.72;6.22;;;21.90;90.50;;;;;;6097194;23;20582;-68
2021/08/30 12:17:55;;;;;;;7.47;6.32;;;22.10;90.20;;;;;;6122652;23;20022;-68
2021/08/30 12:20:44;;;;;;;7.55;5.70;;;22.10;90.90;;;;;;6122076;23;20105;-68
2021/08/30 12:23:19;;;;;;;7.97;5.90;;;22.20;90.00;;;;;;6097509;23;20018;-68
2021/08/30 12:25:46;;;;;;;7.70;6.70;;;22.30;90.30;;;;;;6097373;23;20022;-67
2021/08/30 12:28:14;;;;;;;8.20;6.32;;;22.50;88.80;;;;;;6122655;23;20033;-68
2021/08/30 12:30:48;;;;;;;7.28;5.63;;;22.40;87.90;;;;;;6096497;23;20032;-68
2021/08/30 12:33:20;;;;;;;7.53;5.88;;;22.10;88.80;;;;;;6122783;23;20037;-68
2021/08/30 12:35:51;;;;;;;7.68;5.85;;;22.00;88.80;;;;;;6121733;23;20029;-68
2021/08/30 12:38:25;;;;;;;10.68;6.10;;;21.90;90.10;;;;;;6123126;23;20044;-68
2021/08/30 12:40:55;;;;;;;8.52;6.45;;;22.10;89.50;;;;;;6120386;23;20450;-68
2021/08/30 12:43:21;;;;;;;7.30;6.20;;;22.30;90.00;;;;;;6099228;23;20021;-69
2021/08/30 12:45:49;;;;;;;7.18;6.00;;;22.40;89.60;;;;;;6121599;23;20026;-68